createdAt,value
2018-01-28T00:00:04.540Z,86.91
2018-01-28T00:01:04.559Z,87.01
2018-01-28T00:02:04.571Z,86.91
2018-01-28T00:03:04.586Z,87.01
2018-01-28T00:04:04.598Z,87.29
2018-01-28T00:05:04.612Z,88.43
2018-01-28T00:06:04.627Z,88.05
2018-01-28T00:07:04.641Z,88.05
2018-01-28T00:08:04.655Z,88.34
2018-01-28T00:09:04.670Z,88.43
2018-01-28T00:10:04.683Z,88.05
2018-01-28T00:11:04.698Z,88.05
2018-01-28T00:12:04.713Z,87.95
2018-01-28T00:13:04.729Z,88.81
2018-01-28T00:14:04.740Z,89.00
2018-01-28T00:15:04.754Z,88.62
2018-01-28T00:16:04.785Z,88.43
2018-01-28T00:17:04.785Z,88.90
2018-01-28T00:18:04.798Z,89.57
2018-01-28T00:19:04.815Z,89.00
2018-01-28T00:20:04.832Z,88.90
2018-01-28T00:21:04.843Z,89.00
2018-01-28T00:22:04.852Z,89.67
2018-01-28T00:23:04.868Z,89.19
2018-01-28T00:24:04.882Z,89.86
2018-01-28T00:25:04.898Z,89.57
2018-01-28T00:26:04.913Z,89.57
2018-01-28T00:27:04.926Z,89.67
2018-01-28T00:28:04.941Z,89.86
2018-01-28T00:29:04.955Z,90.14
2018-01-28T00:30:04.971Z,90.14
2018-01-28T00:31:04.983Z,89.95
2018-01-28T00:32:04.997Z,89.86
2018-01-28T00:33:05.013Z,90.71
2018-01-28T00:34:05.027Z,91.42
2018-01-28T00:35:05.039Z,91.80
2018-01-28T00:36:05.058Z,91.28
2018-01-28T00:37:05.069Z,90.90
2018-01-28T00:38:05.086Z,91.38
2018-01-28T00:39:05.100Z,90.90
2018-01-28T00:40:05.112Z,91.19
2018-01-28T00:41:05.136Z,90.90
2018-01-28T00:42:05.143Z,90.61
2018-01-28T00:43:05.154Z,90.23
2018-01-28T00:44:05.175Z,90.14
2018-01-28T00:45:05.186Z,90.23
2018-01-28T00:46:05.203Z,89.95
2018-01-28T00:47:05.214Z,90.14
2018-01-28T00:48:05.229Z,91.28
2018-01-28T00:49:05.245Z,91.85
2018-01-28T00:50:05.260Z,91.38
2018-01-28T00:51:05.272Z,91.19
2018-01-28T00:52:05.282Z,90.99
2018-01-28T00:53:05.298Z,91.09
2018-01-28T00:54:05.319Z,90.99
2018-01-28T00:55:05.328Z,91.66
2018-01-28T00:56:05.344Z,91.80
2018-01-28T00:57:05.358Z,92.37
2018-01-28T00:58:05.378Z,92.42
2018-01-28T00:59:05.386Z,92.80
2018-01-28T01:00:05.399Z,92.71
2018-01-28T01:01:05.423Z,92.04
2018-01-28T01:02:05.428Z,91.85
2018-01-28T01:03:05.445Z,92.04
2018-01-28T01:04:05.462Z,91.38
2018-01-28T01:05:05.471Z,91.38
2018-01-28T01:06:05.489Z,92.04
2018-01-28T01:07:05.501Z,91.85
2018-01-28T01:08:05.514Z,91.85
2018-01-28T01:09:05.530Z,92.04
2018-01-28T01:10:05.543Z,92.42
2018-01-28T01:11:05.557Z,92.61
2018-01-28T01:12:05.574Z,92.51
2018-01-28T01:13:05.587Z,91.47
2018-01-28T01:14:05.599Z,91.19
2018-01-28T01:15:05.612Z,91.94
2018-01-28T01:16:05.632Z,91.66
2018-01-28T01:17:05.642Z,91.19
2018-01-28T01:18:05.656Z,91.19
2018-01-28T01:19:05.674Z,91.38
2018-01-28T01:20:05.685Z,90.90
2018-01-28T01:21:05.698Z,90.90
2018-01-28T01:22:05.715Z,90.80
2018-01-28T01:23:05.733Z,90.14
2018-01-28T01:24:05.749Z,90.90
2018-01-28T01:25:05.757Z,90.90
2018-01-28T01:26:05.773Z,90.42
2018-01-28T01:27:05.785Z,90.61
2018-01-28T01:28:05.799Z,90.61
2018-01-28T01:29:05.816Z,91.28
2018-01-28T01:30:05.829Z,91.09
2018-01-28T01:31:05.843Z,90.99
2018-01-28T01:32:05.855Z,91.38
2018-01-28T01:33:05.874Z,91.09
2018-01-28T01:34:05.889Z,91.38
2018-01-28T01:35:05.902Z,90.90
2018-01-28T01:36:05.914Z,90.33
2018-01-28T01:37:05.928Z,90.80
2018-01-28T01:38:05.945Z,90.80
2018-01-28T01:39:05.959Z,90.71
2018-01-28T01:40:05.976Z,90.90
2018-01-28T01:41:05.988Z,91.66
2018-01-28T01:42:06.003Z,91.75
2018-01-28T01:43:06.015Z,92.47
2018-01-28T01:44:06.031Z,92.71
2018-01-28T01:45:06.042Z,92.51
2018-01-28T01:46:06.058Z,93.08
2018-01-28T01:47:06.073Z,92.85
2018-01-28T01:48:06.088Z,94.74
2018-01-28T01:49:06.103Z,94.37
2018-01-28T01:50:06.118Z,94.18
2018-01-28T01:51:06.133Z,93.80
2018-01-28T01:52:06.146Z,93.46
2018-01-28T01:53:06.157Z,93.27
2018-01-28T01:54:06.174Z,93.18
2018-01-28T01:55:06.187Z,92.99
2018-01-28T01:56:06.203Z,93.08
2018-01-28T01:57:06.217Z,92.90
2018-01-28T01:58:06.232Z,92.99
2018-01-28T01:59:06.245Z,93.37
2018-01-28T02:00:06.260Z,93.27
2018-01-28T02:01:06.277Z,93.18
2018-01-28T02:02:06.287Z,93.65
2018-01-28T02:03:06.301Z,93.08
2018-01-28T02:04:06.316Z,93.37
2018-01-28T02:05:06.331Z,93.37
2018-01-28T02:06:06.345Z,92.90
2018-01-28T02:07:06.361Z,92.42
2018-01-28T02:08:06.372Z,92.71
2018-01-28T02:09:06.389Z,92.42
2018-01-28T02:10:06.420Z,92.71
2018-01-28T02:11:06.420Z,92.90
2018-01-28T02:12:06.431Z,93.18
2018-01-28T02:13:06.446Z,93.37
2018-01-28T02:14:06.463Z,93.27
2018-01-28T02:15:06.474Z,93.18
2018-01-28T02:16:06.487Z,92.27
2018-01-28T02:17:06.503Z,91.80
2018-01-28T02:18:06.519Z,92.32
2018-01-28T02:19:06.531Z,92.08
2018-01-28T02:20:06.544Z,93.46
2018-01-28T02:21:06.556Z,93.27
2018-01-28T02:22:06.576Z,93.18
2018-01-28T02:23:06.592Z,92.51
2018-01-28T02:24:06.603Z,92.99
2018-01-28T02:25:06.618Z,92.90
2018-01-28T02:26:06.631Z,93.41
2018-01-28T02:27:06.647Z,92.61
2018-01-28T02:28:06.660Z,93.18
2018-01-28T02:29:06.676Z,93.75
2018-01-28T02:30:06.691Z,92.99
2018-01-28T02:31:06.705Z,93.27
2018-01-28T02:32:06.720Z,93.18
2018-01-28T02:33:06.735Z,93.23
2018-01-28T02:34:06.748Z,92.85
2018-01-28T02:35:06.767Z,93.41
2018-01-28T02:36:06.774Z,93.23
2018-01-28T02:37:06.797Z,93.56
2018-01-28T02:38:06.804Z,93.56
2018-01-28T02:39:06.822Z,93.41
2018-01-28T02:40:06.836Z,93.27
2018-01-28T02:41:06.849Z,93.51
2018-01-28T02:42:06.862Z,93.32
2018-01-28T02:43:06.884Z,93.41
2018-01-28T02:44:06.895Z,93.70
2018-01-28T02:45:06.909Z,93.23
2018-01-28T02:46:06.919Z,93.04
2018-01-28T02:47:06.937Z,92.85
2018-01-28T02:48:06.953Z,93.32
2018-01-28T02:49:06.972Z,93.13
2018-01-28T02:50:06.990Z,93.23
2018-01-28T02:51:06.995Z,93.41
2018-01-28T02:52:07.012Z,94.18
2018-01-28T02:53:07.022Z,93.32
2018-01-28T02:54:07.040Z,93.13
2018-01-28T02:55:07.050Z,92.85
2018-01-28T02:56:07.067Z,93.56
2018-01-28T02:57:07.081Z,93.79
2018-01-28T02:58:07.095Z,93.60
2018-01-28T02:59:07.110Z,93.41
2018-01-28T03:00:07.124Z,94.03
2018-01-28T03:01:07.139Z,94.60
2018-01-28T03:02:07.160Z,94.60
2018-01-28T03:03:07.168Z,94.51
2018-01-28T03:04:07.181Z,93.84
2018-01-28T03:05:07.199Z,94.51
2018-01-28T03:06:07.214Z,94.60
2018-01-28T03:07:07.226Z,94.23
2018-01-28T03:08:07.247Z,94.89
2018-01-28T03:09:07.256Z,94.98
2018-01-28T03:10:07.269Z,94.93
2018-01-28T03:11:07.286Z,94.18
2018-01-28T03:12:07.299Z,93.99
2018-01-28T03:13:07.312Z,93.84
2018-01-28T03:14:07.326Z,94.32
2018-01-28T03:15:07.342Z,95.36
2018-01-28T03:16:07.360Z,94.79
2018-01-28T03:17:07.374Z,94.51
2018-01-28T03:18:07.391Z,94.98
2018-01-28T03:19:07.403Z,94.79
2018-01-28T03:20:07.417Z,94.65
2018-01-28T03:21:07.476Z,94.46
2018-01-28T03:22:07.446Z,94.46
2018-01-28T03:23:07.459Z,93.99
2018-01-28T03:24:07.475Z,94.32
2018-01-28T03:25:07.489Z,94.60
2018-01-28T03:26:07.501Z,94.60
2018-01-28T03:27:07.519Z,95.17
2018-01-28T03:28:07.534Z,95.84
2018-01-28T03:29:07.552Z,95.94
2018-01-28T03:30:07.566Z,95.17
2018-01-28T03:31:07.575Z,95.08
2018-01-28T03:32:07.593Z,95.55
2018-01-28T03:33:07.605Z,95.84
2018-01-28T03:34:07.628Z,95.27
2018-01-28T03:35:07.635Z,94.74
2018-01-28T03:36:07.648Z,94.93
2018-01-28T03:37:07.664Z,94.37
2018-01-28T03:38:07.678Z,94.56
2018-01-28T03:39:07.693Z,94.84
2018-01-28T03:40:07.704Z,94.42
2018-01-28T03:41:07.722Z,94.98
2018-01-28T03:42:07.736Z,95.17
2018-01-28T03:43:07.748Z,96.31
2018-01-28T03:44:07.764Z,96.41
2018-01-28T03:45:07.779Z,96.31
2018-01-28T03:46:07.794Z,95.41
2018-01-28T03:47:07.809Z,94.18
2018-01-28T03:48:07.824Z,93.99
2018-01-28T03:49:07.838Z,94.37
2018-01-28T03:50:07.909Z,95.12
2018-01-28T03:51:07.863Z,94.65
2018-01-28T03:52:07.878Z,94.18
2018-01-28T03:53:07.901Z,95.08
2018-01-28T03:54:07.931Z,96.03
2018-01-28T03:55:07.922Z,95.84
2018-01-28T03:56:07.936Z,95.41
2018-01-28T03:57:07.954Z,95.12
2018-01-28T03:58:07.966Z,95.03
2018-01-28T03:59:07.985Z,94.93
2018-01-28T04:00:08.002Z,94.56
2018-01-28T04:01:08.012Z,94.37
2018-01-28T04:02:08.026Z,95.27
2018-01-28T04:03:08.040Z,96.08
2018-01-28T04:04:08.059Z,95.12
2018-01-28T04:05:08.068Z,94.84
2018-01-28T04:06:08.086Z,95.17
2018-01-28T04:07:08.099Z,96.22
2018-01-28T04:08:08.113Z,96.26
2018-01-28T04:09:08.127Z,95.75
2018-01-28T04:10:08.145Z,95.89
2018-01-28T04:11:08.159Z,95.89
2018-01-28T04:12:08.170Z,95.75
2018-01-28T04:13:08.188Z,96.03
2018-01-28T04:14:08.202Z,96.03
2018-01-28T04:15:08.212Z,95.46
2018-01-28T04:16:08.230Z,95.98
2018-01-28T04:17:08.245Z,95.60
2018-01-28T04:18:08.259Z,96.03
2018-01-28T04:19:08.273Z,96.36
2018-01-28T04:20:08.295Z,96.03
2018-01-28T04:21:08.303Z,95.55
2018-01-28T04:22:08.316Z,95.75
2018-01-28T04:23:08.330Z,96.69
2018-01-28T04:24:08.343Z,96.79
2018-01-28T04:25:08.362Z,96.60
2018-01-28T04:26:08.374Z,96.55
2018-01-28T04:27:08.390Z,96.45
2018-01-28T04:28:08.404Z,95.89
2018-01-28T04:29:08.423Z,94.93
2018-01-28T04:30:08.432Z,94.93
2018-01-28T04:31:08.449Z,95.12
2018-01-28T04:32:08.461Z,95.12
2018-01-28T04:33:08.477Z,95.03
2018-01-28T04:34:08.490Z,95.22
2018-01-28T04:35:08.505Z,95.79
2018-01-28T04:36:08.521Z,95.22
2018-01-28T04:37:08.536Z,95.03
2018-01-28T04:38:08.548Z,95.03
2018-01-28T04:39:08.561Z,95.03
2018-01-28T04:40:08.580Z,94.65
2018-01-28T04:41:08.594Z,94.37
2018-01-28T04:42:08.610Z,94.93
2018-01-28T04:43:08.625Z,94.74
2018-01-28T04:44:08.639Z,95.03
2018-01-28T04:45:08.650Z,94.93
2018-01-28T04:46:08.663Z,94.56
2018-01-28T04:47:08.680Z,94.65
2018-01-28T04:48:08.695Z,94.84
2018-01-28T04:49:08.709Z,95.70
2018-01-28T04:50:08.721Z,96.08
2018-01-28T04:51:08.737Z,95.98
2018-01-28T04:52:08.755Z,96.74
2018-01-28T04:53:08.769Z,96.65
2018-01-28T04:54:08.783Z,96.55
2018-01-28T04:55:08.795Z,96.08
2018-01-28T04:56:08.814Z,95.70
2018-01-28T04:57:08.829Z,96.17
2018-01-28T04:58:08.845Z,96.08
2018-01-28T04:59:08.857Z,95.79
2018-01-28T05:00:08.871Z,95.79
2018-01-28T05:01:08.886Z,95.32
2018-01-28T05:02:08.898Z,95.36
2018-01-28T05:03:08.913Z,94.89
2018-01-28T05:04:08.928Z,95.08
2018-01-28T05:05:08.943Z,94.98
2018-01-28T05:06:08.958Z,94.32
2018-01-28T05:07:08.973Z,94.60
2018-01-28T05:08:08.990Z,94.84
2018-01-28T05:09:09.004Z,95.32
2018-01-28T05:10:09.015Z,95.89
2018-01-28T05:11:09.036Z,95.89
2018-01-28T05:12:09.048Z,96.08
2018-01-28T05:13:09.062Z,95.79
2018-01-28T05:14:09.105Z,95.27
2018-01-28T05:15:09.091Z,95.75
2018-01-28T05:16:09.110Z,96.08
2018-01-28T05:17:09.121Z,95.89
2018-01-28T05:18:09.135Z,95.41
2018-01-28T05:19:09.149Z,95.56
2018-01-28T05:20:09.169Z,95.79
2018-01-28T05:21:09.180Z,96.08
2018-01-28T05:22:09.191Z,95.70
2018-01-28T05:23:09.212Z,95.70
2018-01-28T05:24:09.228Z,95.98
2018-01-28T05:25:09.239Z,95.79
2018-01-28T05:26:09.256Z,96.26
2018-01-28T05:27:09.268Z,96.36
2018-01-28T05:28:09.313Z,96.36
2018-01-28T05:29:09.298Z,95.89
2018-01-28T05:30:09.311Z,97.12
2018-01-28T05:31:09.324Z,96.65
2018-01-28T05:32:09.339Z,96.84
2018-01-28T05:33:09.354Z,96.74
2018-01-28T05:34:09.371Z,96.36
2018-01-28T05:35:09.386Z,96.74
2018-01-28T05:36:09.399Z,96.55
2018-01-28T05:37:09.414Z,96.65
2018-01-28T05:38:09.427Z,96.45
2018-01-28T05:39:09.445Z,96.65
2018-01-28T05:40:09.458Z,96.60
2018-01-28T05:41:09.474Z,96.41
2018-01-28T05:42:09.489Z,95.84
2018-01-28T05:43:09.502Z,95.36
2018-01-28T05:44:09.518Z,95.94
2018-01-28T05:45:09.534Z,96.26
2018-01-28T05:46:09.546Z,96.08
2018-01-28T05:47:09.563Z,96.50
2018-01-28T05:48:09.576Z,95.36
2018-01-28T05:49:09.591Z,94.79
2018-01-28T05:50:09.605Z,94.51
2018-01-28T05:51:09.621Z,94.51
2018-01-28T05:52:09.635Z,94.98
2018-01-28T05:53:09.650Z,95.17
2018-01-28T05:54:09.666Z,96.03
2018-01-28T05:55:09.678Z,95.08
2018-01-28T05:56:09.697Z,95.27
2018-01-28T05:57:09.710Z,95.94
2018-01-28T05:58:09.723Z,96.17
2018-01-28T05:59:09.742Z,96.12
2018-01-28T06:00:09.755Z,96.12
2018-01-28T06:01:09.771Z,96.31
2018-01-28T06:02:09.783Z,95.75
2018-01-28T06:03:09.842Z,96.12
2018-01-28T06:04:09.816Z,95.94
2018-01-28T06:05:09.831Z,95.27
2018-01-28T06:06:09.874Z,95.08
2018-01-28T06:07:09.858Z,96.12
2018-01-28T06:08:09.876Z,96.03
2018-01-28T06:09:09.888Z,96.03
2018-01-28T06:10:09.901Z,96.31
2018-01-28T06:11:09.917Z,96.03
2018-01-28T06:12:09.932Z,96.12
2018-01-28T06:13:09.998Z,95.65
2018-01-28T06:14:09.963Z,95.94
2018-01-28T06:15:09.975Z,96.31
2018-01-28T06:16:10.045Z,96.41
2018-01-28T06:17:10.007Z,96.12
2018-01-28T06:18:10.024Z,95.94
2018-01-28T06:19:10.036Z,95.84
2018-01-28T06:20:10.051Z,95.65
2018-01-28T06:21:10.068Z,95.27
2018-01-28T06:22:10.079Z,96.12
2018-01-28T06:23:10.097Z,96.89
2018-01-28T06:24:10.127Z,97.41
2018-01-28T06:25:10.125Z,97.60
2018-01-28T06:26:10.138Z,98.12
2018-01-28T06:27:10.157Z,98.36
2018-01-28T06:28:10.170Z,98.83
2018-01-28T06:29:10.186Z,98.83
2018-01-28T06:30:10.199Z,98.36
2018-01-28T06:31:10.218Z,98.03
2018-01-28T06:32:10.229Z,97.27
2018-01-28T06:33:10.243Z,97.27
2018-01-28T06:34:10.258Z,96.69
2018-01-28T06:35:10.273Z,96.69
2018-01-28T06:36:10.289Z,96.98
2018-01-28T06:37:10.303Z,96.31
2018-01-28T06:38:10.318Z,96.22
2018-01-28T06:39:10.334Z,95.65
2018-01-28T06:40:10.347Z,95.84
2018-01-28T06:41:10.363Z,96.12
2018-01-28T06:42:10.377Z,96.12
2018-01-28T06:43:10.394Z,96.31
2018-01-28T06:44:10.409Z,96.12
2018-01-28T06:45:10.423Z,96.41
2018-01-28T06:46:10.435Z,96.69
2018-01-28T06:47:10.451Z,96.69
2018-01-28T06:48:10.481Z,96.60
2018-01-28T06:49:10.483Z,97.45
2018-01-28T06:50:10.500Z,98.12
2018-01-28T06:51:10.514Z,98.31
2018-01-28T06:52:10.528Z,98.22
2018-01-28T06:53:10.543Z,98.50
2018-01-28T06:54:10.559Z,98.12
2018-01-28T06:55:10.573Z,98.41
2018-01-28T06:56:10.590Z,98.07
2018-01-28T06:57:10.605Z,98.41
2018-01-28T06:58:10.617Z,98.31
2018-01-28T06:59:10.631Z,98.41
2018-01-28T07:00:10.646Z,98.22
2018-01-28T07:01:10.660Z,98.60
2018-01-28T07:02:10.675Z,98.41
2018-01-28T07:03:10.695Z,98.03
2018-01-28T07:04:10.705Z,98.41
2018-01-28T07:05:10.721Z,98.69
2018-01-28T07:06:10.735Z,98.60
2018-01-28T07:07:10.752Z,98.88
2018-01-28T07:08:10.766Z,98.31
2018-01-28T07:09:10.786Z,98.22
2018-01-28T07:10:10.796Z,98.12
2018-01-28T07:11:10.809Z,98.12
2018-01-28T07:12:10.827Z,98.60
2018-01-28T07:13:10.840Z,98.12
2018-01-28T07:14:10.855Z,98.22
2018-01-28T07:15:10.871Z,98.03
2018-01-28T07:16:10.888Z,99.16
2018-01-28T07:17:10.898Z,98.60
2018-01-28T07:18:10.915Z,98.97
2018-01-28T07:19:10.929Z,98.97
2018-01-28T07:20:10.945Z,99.55
2018-01-28T07:21:10.959Z,99.16
2018-01-28T07:22:10.973Z,98.97
2018-01-28T07:23:10.987Z,99.64
2018-01-28T07:24:11.004Z,99.36
2018-01-28T07:25:11.019Z,99.07
2018-01-28T07:26:11.033Z,99.07
2018-01-28T07:27:11.047Z,98.12
2018-01-28T07:28:11.064Z,98.31
2018-01-28T07:29:11.077Z,97.55
2018-01-28T07:30:11.092Z,97.03
2018-01-28T07:31:11.108Z,96.74
2018-01-28T07:32:11.123Z,97.03
2018-01-28T07:33:11.140Z,97.17
2018-01-28T07:34:11.152Z,98.41
2018-01-28T07:35:11.168Z,98.50
2018-01-28T07:36:11.187Z,99.07
2018-01-28T07:37:11.198Z,98.60
2018-01-28T07:38:11.217Z,99.26
2018-01-28T07:39:11.229Z,98.88
2018-01-28T07:40:11.242Z,98.60
2018-01-28T07:41:11.261Z,98.22
2018-01-28T07:42:11.272Z,97.79
2018-01-28T07:43:11.287Z,97.93
2018-01-28T07:44:11.303Z,98.50
2018-01-28T07:45:11.320Z,98.97
2018-01-28T07:46:11.336Z,99.16
2018-01-28T07:47:11.355Z,98.27
2018-01-28T07:48:11.366Z,97.50
2018-01-28T07:49:11.384Z,98.22
2018-01-28T07:50:11.392Z,98.12
2018-01-28T07:51:11.409Z,98.03
2018-01-28T07:52:11.424Z,98.31
2018-01-28T07:53:11.442Z,98.60
2018-01-28T07:54:11.453Z,98.46
2018-01-28T07:55:11.470Z,97.79
2018-01-28T07:56:11.489Z,97.60
2018-01-28T07:57:11.498Z,97.69
2018-01-28T07:58:11.511Z,97.03
2018-01-28T07:59:11.530Z,96.94
2018-01-28T08:00:11.591Z,97.13
2018-01-28T08:01:11.561Z,97.60
2018-01-28T08:02:11.572Z,97.69
2018-01-28T08:03:11.586Z,97.03
2018-01-28T08:04:11.605Z,97.88
2018-01-28T08:05:11.618Z,97.41
2018-01-28T08:06:11.638Z,97.22
2018-01-28T08:07:11.685Z,97.60
2018-01-28T08:08:11.668Z,97.50
2018-01-28T08:09:11.682Z,98.08
2018-01-28T08:10:11.703Z,97.41
2018-01-28T08:11:11.715Z,97.31
2018-01-28T08:12:11.826Z,96.55
2018-01-28T08:13:11.754Z,97.13
2018-01-28T08:14:11.761Z,96.74
2018-01-28T08:15:11.774Z,97.69
2018-01-28T08:16:11.798Z,97.41
2018-01-28T08:17:11.822Z,97.50
2018-01-28T08:18:11.817Z,97.41
2018-01-28T08:19:11.833Z,97.50
2018-01-28T08:20:11.848Z,96.94
2018-01-28T08:21:11.863Z,97.50
2018-01-28T08:22:11.878Z,97.88
2018-01-28T08:23:11.894Z,98.55
2018-01-28T08:24:11.938Z,98.08
2018-01-28T08:25:11.926Z,98.17
2018-01-28T08:26:11.955Z,97.50
2018-01-28T08:27:11.967Z,97.03
2018-01-28T08:28:11.970Z,97.03
2018-01-28T08:29:11.985Z,96.94
2018-01-28T08:30:12.005Z,96.55
2018-01-28T08:31:12.016Z,96.74
2018-01-28T08:32:12.034Z,96.55
2018-01-28T08:33:12.048Z,97.03
2018-01-28T08:34:12.064Z,97.03
2018-01-28T08:35:12.078Z,97.13
2018-01-28T08:36:12.098Z,96.84
2018-01-28T08:37:12.112Z,97.69
2018-01-28T08:38:12.126Z,97.46
2018-01-28T08:39:12.145Z,96.89
2018-01-28T08:40:12.158Z,97.31
2018-01-28T08:41:12.176Z,97.79
2018-01-28T08:42:12.184Z,97.46
2018-01-28T08:43:12.207Z,97.08
2018-01-28T08:44:12.216Z,96.79
2018-01-28T08:45:12.232Z,96.41
2018-01-28T08:46:12.247Z,95.60
2018-01-28T08:47:12.264Z,96.94
2018-01-28T08:48:12.282Z,97.41
2018-01-28T08:49:12.295Z,97.88
2018-01-28T08:50:12.309Z,97.69
2018-01-28T08:51:12.324Z,97.13
2018-01-28T08:52:12.339Z,96.65
2018-01-28T08:53:12.359Z,96.70
2018-01-28T08:54:12.373Z,96.84
2018-01-28T08:55:12.390Z,97.88
2018-01-28T08:56:12.404Z,98.08
2018-01-28T08:57:12.419Z,97.79
2018-01-28T08:58:12.439Z,98.36
2018-01-28T08:59:12.445Z,98.36
2018-01-28T09:00:12.463Z,98.55
2018-01-28T09:01:12.482Z,98.46
2018-01-28T09:02:12.496Z,97.69
2018-01-28T09:03:12.508Z,97.17
2018-01-28T09:04:12.525Z,97.13
2018-01-28T09:05:12.544Z,97.79
2018-01-28T09:06:12.554Z,98.17
2018-01-28T09:07:12.575Z,98.27
2018-01-28T09:08:12.591Z,98.36
2018-01-28T09:09:12.599Z,97.55
2018-01-28T09:10:12.619Z,96.89
2018-01-28T09:11:12.636Z,97.55
2018-01-28T09:12:12.651Z,98.27
2018-01-28T09:13:12.663Z,98.27
2018-01-28T09:14:12.677Z,97.36
2018-01-28T09:15:12.693Z,98.08
2018-01-28T09:16:12.709Z,97.79
2018-01-28T09:17:12.728Z,97.27
2018-01-28T09:18:12.739Z,97.36
2018-01-28T09:19:12.757Z,96.98
2018-01-28T09:20:12.769Z,97.36
2018-01-28T09:21:12.788Z,97.27
2018-01-28T09:22:12.801Z,97.65
2018-01-28T09:23:12.817Z,98.27
2018-01-28T09:24:12.833Z,98.55
2018-01-28T09:25:12.850Z,98.36
2018-01-28T09:26:12.861Z,97.79
2018-01-28T09:27:12.889Z,98.08
2018-01-28T09:28:12.894Z,98.08
2018-01-28T09:29:12.910Z,98.17
2018-01-28T09:30:12.929Z,98.55
2018-01-28T09:31:12.940Z,97.69
2018-01-28T09:32:12.954Z,98.22
2018-01-28T09:33:12.972Z,97.84
2018-01-28T09:34:12.986Z,97.93
2018-01-28T09:35:13.003Z,97.55
2018-01-28T09:36:13.021Z,97.74
2018-01-28T09:37:13.037Z,97.55
2018-01-28T09:38:13.051Z,97.08
2018-01-28T09:39:13.065Z,96.55
2018-01-28T09:40:13.082Z,97.74
2018-01-28T09:41:13.098Z,96.70
2018-01-28T09:42:13.111Z,96.41
2018-01-28T09:43:13.130Z,96.41
2018-01-28T09:44:13.143Z,96.70
2018-01-28T09:45:13.160Z,97.17
2018-01-28T09:46:13.186Z,97.74
2018-01-28T09:47:13.189Z,98.27
2018-01-28T09:48:13.206Z,98.55
2018-01-28T09:49:13.223Z,98.65
2018-01-28T09:50:13.237Z,98.32
2018-01-28T09:51:13.251Z,97.93
2018-01-28T09:52:13.268Z,96.98
2018-01-28T09:53:13.297Z,96.12
2018-01-28T09:54:13.297Z,96.41
2018-01-28T09:55:13.316Z,96.22
2018-01-28T09:56:13.330Z,96.70
2018-01-28T09:57:13.345Z,96.98
2018-01-28T09:58:13.360Z,96.70
2018-01-28T09:59:13.378Z,96.03
2018-01-28T10:00:13.399Z,96.27
2018-01-28T10:01:13.407Z,95.22
2018-01-28T10:02:13.422Z,96.60
2018-01-28T10:03:13.438Z,96.51
2018-01-28T10:04:13.454Z,97.08
2018-01-28T10:05:13.471Z,97.08
2018-01-28T10:06:13.486Z,97.65
2018-01-28T10:07:13.500Z,97.17
2018-01-28T10:08:13.519Z,96.89
2018-01-28T10:09:13.530Z,96.41
2018-01-28T10:10:13.548Z,96.22
2018-01-28T10:11:13.563Z,96.89
2018-01-28T10:12:13.580Z,97.84
2018-01-28T10:13:13.599Z,97.84
2018-01-28T10:14:13.666Z,97.36
2018-01-28T10:15:13.625Z,97.65
2018-01-28T10:16:13.640Z,96.98
2018-01-28T10:17:13.656Z,97.74
2018-01-28T10:18:13.686Z,96.98
2018-01-28T10:19:13.690Z,97.08
2018-01-28T10:20:13.703Z,97.08
2018-01-28T10:21:13.720Z,96.79
2018-01-28T10:22:13.769Z,96.79
2018-01-28T10:23:13.752Z,96.70
2018-01-28T10:24:13.776Z,96.89
2018-01-28T10:25:13.781Z,96.17
2018-01-28T10:26:13.798Z,96.12
2018-01-28T10:27:13.819Z,96.17
2018-01-28T10:28:13.830Z,96.89
2018-01-28T10:29:13.844Z,97.55
2018-01-28T10:30:13.862Z,97.84
2018-01-28T10:31:13.886Z,97.36
2018-01-28T10:32:13.893Z,97.84
2018-01-28T10:33:13.907Z,97.27
2018-01-28T10:34:13.921Z,96.89
2018-01-28T10:35:13.942Z,96.70
2018-01-28T10:36:13.960Z,97.17
2018-01-28T10:37:13.969Z,96.79
2018-01-28T10:38:14.044Z,96.79
2018-01-28T10:39:14.022Z,97.27
2018-01-28T10:40:14.017Z,97.46
2018-01-28T10:41:14.030Z,98.13
2018-01-28T10:42:14.050Z,97.27
2018-01-28T10:43:14.078Z,97.65
2018-01-28T10:44:14.083Z,97.84
2018-01-28T10:45:14.095Z,97.08
2018-01-28T10:46:14.108Z,97.27
2018-01-28T10:47:14.232Z,96.75
2018-01-28T10:48:14.146Z,96.75
2018-01-28T10:49:14.162Z,96.27
2018-01-28T10:50:14.177Z,96.46
2018-01-28T10:51:14.210Z,96.08
2018-01-28T10:52:14.217Z,95.98
2018-01-28T10:53:14.225Z,96.27
2018-01-28T10:54:14.238Z,96.46
2018-01-28T10:55:14.260Z,96.84
2018-01-28T10:56:14.270Z,96.55
2018-01-28T10:57:14.294Z,96.27
2018-01-28T10:58:14.301Z,96.36
2018-01-28T10:59:14.316Z,96.36
2018-01-28T11:00:14.334Z,95.41
2018-01-28T11:01:14.351Z,95.03
2018-01-28T11:02:14.364Z,94.84
2018-01-28T11:03:14.382Z,94.84
2018-01-28T11:04:14.402Z,95.03
2018-01-28T11:05:14.413Z,95.32
2018-01-28T11:06:14.429Z,95.98
2018-01-28T11:07:14.442Z,95.22
2018-01-28T11:08:14.460Z,96.17
2018-01-28T11:09:14.475Z,96.36
2018-01-28T11:10:14.496Z,95.32
2018-01-28T11:11:14.510Z,95.12
2018-01-28T11:12:14.523Z,94.70
2018-01-28T11:13:14.540Z,94.60
2018-01-28T11:14:14.558Z,94.27
2018-01-28T11:15:14.631Z,94.93
2018-01-28T11:16:14.587Z,95.12
2018-01-28T11:17:14.603Z,95.03
2018-01-28T11:18:14.622Z,95.03
2018-01-28T11:19:14.646Z,95.12
2018-01-28T11:20:14.655Z,95.32
2018-01-28T11:21:14.676Z,95.22
2018-01-28T11:22:14.684Z,95.12
2018-01-28T11:23:14.696Z,95.60
2018-01-28T11:24:14.717Z,95.32
2018-01-28T11:25:14.731Z,94.93
2018-01-28T11:26:14.746Z,94.65
2018-01-28T11:27:14.761Z,94.65
2018-01-28T11:28:14.796Z,94.46
2018-01-28T11:29:14.797Z,94.46
2018-01-28T11:30:14.812Z,94.56
2018-01-28T11:31:14.829Z,94.65
2018-01-28T11:32:14.841Z,94.65
2018-01-28T11:33:14.860Z,94.56
2018-01-28T11:34:14.873Z,94.74
2018-01-28T11:35:14.890Z,94.37
2018-01-28T11:36:14.905Z,95.03
2018-01-28T11:37:14.927Z,94.93
2018-01-28T11:38:14.936Z,94.27
2018-01-28T11:39:14.953Z,93.98
2018-01-28T11:40:15.125Z,94.37
2018-01-28T11:41:14.987Z,94.03
2018-01-28T11:42:15.046Z,93.98
2018-01-28T11:43:15.019Z,94.84
2018-01-28T11:44:15.035Z,93.98
2018-01-28T11:45:15.055Z,94.37
2018-01-28T11:46:15.069Z,94.17
2018-01-28T11:47:15.082Z,93.55
2018-01-28T11:48:15.101Z,93.46
2018-01-28T11:49:15.117Z,92.69
2018-01-28T11:50:15.135Z,93.17
2018-01-28T11:51:15.145Z,93.17
2018-01-28T11:52:15.165Z,93.22
2018-01-28T11:53:15.189Z,93.51
2018-01-28T11:54:15.198Z,93.46
2018-01-28T11:55:15.213Z,92.79
2018-01-28T11:56:15.231Z,92.89
2018-01-28T11:57:15.243Z,92.79
2018-01-28T11:58:15.408Z,92.98
2018-01-28T11:59:15.280Z,92.79
2018-01-28T12:00:15.295Z,93.41
2018-01-28T12:01:15.319Z,93.37
2018-01-28T12:02:15.322Z,92.50
2018-01-28T12:03:15.338Z,92.13
2018-01-28T12:04:15.365Z,92.03
2018-01-28T12:05:15.414Z,92.89
2018-01-28T12:06:15.390Z,92.79
2018-01-28T12:07:15.409Z,92.69
2018-01-28T12:08:15.421Z,92.79
2018-01-28T12:09:15.437Z,92.98
2018-01-28T12:10:15.452Z,92.32
2018-01-28T12:11:15.470Z,92.41
2018-01-28T12:12:15.486Z,91.94
2018-01-28T12:13:15.500Z,91.65
2018-01-28T12:14:15.517Z,91.65
2018-01-28T12:15:15.533Z,91.55
2018-01-28T12:16:15.556Z,91.94
2018-01-28T12:17:15.572Z,91.74
2018-01-28T12:18:15.583Z,92.22
2018-01-28T12:19:15.597Z,91.84
2018-01-28T12:20:15.621Z,91.65
2018-01-28T12:21:15.637Z,91.55
2018-01-28T12:22:15.657Z,90.89
2018-01-28T12:23:15.663Z,91.08
2018-01-28T12:24:15.678Z,90.03
2018-01-28T12:25:15.720Z,89.94
2018-01-28T12:26:15.713Z,90.50
2018-01-28T12:27:15.732Z,89.55
2018-01-28T12:28:15.746Z,90.03
2018-01-28T12:29:15.763Z,89.65
2018-01-28T12:30:15.775Z,89.55
2018-01-28T12:31:15.798Z,89.65
2018-01-28T12:32:15.812Z,89.65
2018-01-28T12:33:15.826Z,88.93
2018-01-28T12:34:15.841Z,88.26
2018-01-28T12:35:15.857Z,88.36
2018-01-28T12:36:15.879Z,88.07
2018-01-28T12:37:15.896Z,87.79
2018-01-28T12:38:15.914Z,87.40
2018-01-28T12:39:15.928Z,88.17
2018-01-28T12:40:15.942Z,88.07
2018-01-28T12:41:15.958Z,87.79
2018-01-28T12:42:15.985Z,88.07
2018-01-28T12:43:15.992Z,87.40
2018-01-28T12:44:16.008Z,87.21
2018-01-28T12:45:16.030Z,86.65
2018-01-28T12:46:16.041Z,86.36
2018-01-28T12:47:16.056Z,86.45
2018-01-28T12:48:16.079Z,87.02
2018-01-28T12:49:16.092Z,86.45
2018-01-28T12:50:16.123Z,86.55
2018-01-28T12:51:16.134Z,86.74
2018-01-28T12:52:16.143Z,86.07